States of Jersey

Home Log in

Channel Islands Terminal Aerodrome Forecasts (TAFs) issued Tuesday, 28 March 2017

Jersey Airport - EGJJ

281659Z 2818/2903 19013KT FEW015 BECMG 2820/2822 BKN012 PROB30 TEMPO 2821/2903 4000 -RA BKN005=

Guernsey Airport - EGJB

281659Z 2818/2903 19012KT FEW015 BECMG 2819/2821 BKN012 PROB30 TEMPO 2820/2903 3000 -RA BKN004 BECMG 2821/2824 21020KT=

Alderney Airport - EGJA

281659Z 2818/2903 Nil